sensor_id;sensor_type;location;lat;lon;timestamp;pressure;altitude;pressure_sealevel;temperature;humidity
73941;BME280;62294;48.554;10.202;2024-03-02T00:00:30;72517.78;;;5.07;100.00
73941;BME280;62294;48.554;10.202;2024-03-02T00:02:57;72556.25;;;4.99;100.00
73941;BME280;62294;48.554;10.202;2024-03-02T00:05:23;72651.91;;;4.88;100.00
73941;BME280;62294;48.554;10.202;2024-03-02T00:07:54;72787.03;;;4.72;100.00
73941;BME280;62294;48.554;10.202;2024-03-02T00:10:30;72878.47;;;4.53;100.00
73941;BME280;62294;48.554;10.202;2024-03-02T00:13:01;72900.72;;;4.42;100.00
73941;BME280;62294;48.554;10.202;2024-03-02T00:15:47;72923.50;;;4.32;100.00
73941;BME280;62294;48.554;10.202;2024-03-02T00:18:18;72982.63;;;4.27;100.00
73941;BME280;62294;48.554;10.202;2024-03-02T00:20:45;72957.50;;;4.32;100.00
73941;BME280;62294;48.554;10.202;2024-03-02T00:23:15;72870.09;;;4.40;100.00
73941;BME280;62294;48.554;10.202;2024-03-02T00:25:46;72827.22;;;4.46;100.00
73941;BME280;62294;48.554;10.202;2024-03-02T00:28:18;72725.94;;;4.55;100.00
73941;BME280;62294;48.554;10.202;2024-03-02T00:33:21;72683.94;;;4.57;100.00
73941;BME280;62294;48.554;10.202;2024-03-02T00:35:49;72661.66;;;4.58;100.00
73941;BME280;62294;48.554;10.202;2024-03-02T00:38:16;72655.28;;;4.55;100.00
73941;BME280;62294;48.554;10.202;2024-03-02T00:40:44;72684.72;;;4.55;100.00
73941;BME280;62294;48.554;10.202;2024-03-02T00:46:18;72653.81;;;4.58;100.00
73941;BME280;62294;48.554;10.202;2024-03-02T00:51:18;72624.50;;;4.66;100.00
73941;BME280;62294;48.554;10.202;2024-03-02T00:53:45;72619.28;;;4.66;100.00
73941;BME280;62294;48.554;10.202;2024-03-02T00:56:11;72578.25;;;4.73;100.00
73941;BME280;62294;48.554;10.202;2024-03-02T00:58:39;72630.50;;;4.64;100.00
73941;BME280;62294;48.554;10.202;2024-03-02T01:01:06;72682.84;;;4.54;100.00
73941;BME280;62294;48.554;10.202;2024-03-02T01:03:34;72566.06;;;4.59;100.00
73941;BME280;62294;48.554;10.202;2024-03-02T01:06:00;72372.66;;;4.65;100.00
73941;BME280;62294;48.554;10.202;2024-03-02T01:08:27;72316.53;;;4.73;100.00
73941;BME280;62294;48.554;10.202;2024-03-02T01:10:54;72294.56;;;4.78;100.00
73941;BME280;62294;48.554;10.202;2024-03-02T01:13:24;72252.44;;;4.91;100.00
73941;BME280;62294;48.554;10.202;2024-03-02T01:15:51;72224.66;;;5.04;100.00
73941;BME280;62294;48.554;10.202;2024-03-02T01:18:17;72152.69;;;4.95;100.00
73941;BME280;62294;48.554;10.202;2024-03-02T01:20:44;72315.84;;;4.83;100.00
73941;BME280;62294;48.554;10.202;2024-03-02T01:23:11;72345.03;;;4.77;100.00
73941;BME280;62294;48.554;10.202;2024-03-02T01:25:38;72407.72;;;4.79;100.00
73941;BME280;62294;48.554;10.202;2024-03-02T01:28:05;72425.16;;;4.82;100.00
73941;BME280;62294;48.554;10.202;2024-03-02T01:30:31;72434.75;;;4.86;100.00
73941;BME280;62294;48.554;10.202;2024-03-02T01:32:58;72457.53;;;4.87;100.00
73941;BME280;62294;48.554;10.202;2024-03-02T01:35:26;72443.41;;;4.93;100.00
73941;BME280;62294;48.554;10.202;2024-03-02T01:37:53;72444.03;;;4.93;100.00
73941;BME280;62294;48.554;10.202;2024-03-02T01:40:20;72454.72;;;5.00;100.00
73941;BME280;62294;48.554;10.202;2024-03-02T01:42:47;72475.19;;;4.97;100.00
73941;BME280;62294;48.554;10.202;2024-03-02T01:45:13;72542.91;;;4.93;100.00
73941;BME280;62294;48.554;10.202;2024-03-02T01:47:40;72615.38;;;4.86;100.00
73941;BME280;62294;48.554;10.202;2024-03-02T01:50:07;72707.50;;;4.78;100.00
73941;BME280;62294;48.554;10.202;2024-03-02T01:52:33;72874.97;;;4.57;100.00
73941;BME280;62294;48.554;10.202;2024-03-02T01:55:00;72922.22;;;4.55;100.00
73941;BME280;62294;48.554;10.202;2024-03-02T01:57:27;72936.56;;;4.56;100.00
73941;BME280;62294;48.554;10.202;2024-03-02T01:59:53;72970.06;;;4.53;100.00
73941;BME280;62294;48.554;10.202;2024-03-02T02:02:20;73004.91;;;4.50;100.00
73941;BME280;62294;48.554;10.202;2024-03-02T02:04:47;73006.94;;;4.49;100.00
73941;BME280;62294;48.554;10.202;2024-03-02T02:07:13;72936.31;;;4.60;100.00
73941;BME280;62294;48.554;10.202;2024-03-02T02:09:44;72881.84;;;4.62;100.00
73941;BME280;62294;48.554;10.202;2024-03-02T02:12:11;72824.53;;;4.69;100.00
73941;BME280;62294;48.554;10.202;2024-03-02T02:14:37;72825.91;;;4.68;100.00
73941;BME280;62294;48.554;10.202;2024-03-02T02:17:06;72859.06;;;4.61;100.00
73941;BME280;62294;48.554;10.202;2024-03-02T02:19:33;72948.63;;;4.51;100.00
73941;BME280;62294;48.554;10.202;2024-03-02T02:21:59;72979.50;;;4.48;100.00
73941;BME280;62294;48.554;10.202;2024-03-02T02:24:26;72991.84;;;4.50;100.00
73941;BME280;62294;48.554;10.202;2024-03-02T02:26:52;73017.16;;;4.53;100.00
73941;BME280;62294;48.554;10.202;2024-03-02T02:29:19;73010.53;;;4.54;100.00
73941;BME280;62294;48.554;10.202;2024-03-02T02:31:45;73047.19;;;4.54;100.00
73941;BME280;62294;48.554;10.202;2024-03-02T02:34:14;73064.91;;;4.54;100.00
73941;BME280;62294;48.554;10.202;2024-03-02T02:36:40;73066.03;;;4.57;100.00
73941;BME280;62294;48.554;10.202;2024-03-02T02:39:11;73075.13;;;4.58;100.00
73941;BME280;62294;48.554;10.202;2024-03-02T02:41:39;73096.06;;;4.58;100.00
73941;BME280;62294;48.554;10.202;2024-03-02T02:44:06;73162.56;;;4.50;100.00
73941;BME280;62294;48.554;10.202;2024-03-02T02:46:32;73190.94;;;4.46;100.00
73941;BME280;62294;48.554;10.202;2024-03-02T02:48:59;73183.38;;;4.52;100.00
73941;BME280;62294;48.554;10.202;2024-03-02T02:51:26;73136.47;;;4.61;100.00
73941;BME280;62294;48.554;10.202;2024-03-02T02:53:52;73133.75;;;4.63;100.00
73941;BME280;62294;48.554;10.202;2024-03-02T02:56:19;73135.63;;;4.64;100.00
73941;BME280;62294;48.554;10.202;2024-03-02T02:58:45;73181.69;;;4.59;100.00
73941;BME280;62294;48.554;10.202;2024-03-02T03:01:12;73276.16;;;4.43;100.00
73941;BME280;62294;48.554;10.202;2024-03-02T03:03:39;73247.66;;;4.49;100.00
73941;BME280;62294;48.554;10.202;2024-03-02T03:06:06;73212.69;;;4.55;100.00
73941;BME280;62294;48.554;10.202;2024-03-02T03:08:33;73198.03;;;4.60;100.00
73941;BME280;62294;48.554;10.202;2024-03-02T03:11:00;73213.72;;;4.60;100.00
73941;BME280;62294;48.554;10.202;2024-03-02T03:13:26;73213.72;;;4.60;100.00
73941;BME280;62294;48.554;10.202;2024-03-02T03:15:53;73236.13;;;4.57;100.00
73941;BME280;62294;48.554;10.202;2024-03-02T03:18:19;73300.63;;;4.50;100.00
73941;BME280;62294;48.554;10.202;2024-03-02T03:20:46;73374.41;;;4.40;100.00
73941;BME280;62294;48.554;10.202;2024-03-02T03:23:13;73470.47;;;4.28;100.00
73941;BME280;62294;48.554;10.202;2024-03-02T03:25:45;73528.47;;;4.18;100.00
73941;BME280;62294;48.554;10.202;2024-03-02T03:28:11;73597.88;;;4.03;100.00
73941;BME280;62294;48.554;10.202;2024-03-02T03:30:38;73572.53;;;3.99;100.00
73941;BME280;62294;48.554;10.202;2024-03-02T03:33:05;73541.06;;;4.01;100.00
73941;BME280;62294;48.554;10.202;2024-03-02T03:35:33;73535.91;;;3.99;100.00
73941;BME280;62294;48.554;10.202;2024-03-02T03:37:59;73477.69;;;4.01;100.00
73941;BME280;62294;48.554;10.202;2024-03-02T03:40:26;73433.94;;;3.99;100.00
73941;BME280;62294;48.554;10.202;2024-03-02T03:42:53;73419.81;;;3.94;100.00
73941;BME280;62294;48.554;10.202;2024-03-02T03:45:19;73407.03;;;3.88;100.00
73941;BME280;62294;48.554;10.202;2024-03-02T03:47:46;73304.78;;;3.94;100.00
73941;BME280;62294;48.554;10.202;2024-03-02T03:50:13;73237.41;;;3.95;100.00
73941;BME280;62294;48.554;10.202;2024-03-02T03:52:40;73191.09;;;3.93;100.00
73941;BME280;62294;48.554;10.202;2024-03-02T03:55:06;73145.41;;;3.92;100.00
73941;BME280;62294;48.554;10.202;2024-03-02T03:57:33;73093.94;;;3.89;100.00
73941;BME280;62294;48.554;10.202;2024-03-02T04:00:00;73060.69;;;3.87;100.00
73941;BME280;62294;48.554;10.202;2024-03-02T04:02:27;73021.38;;;3.89;100.00
73941;BME280;62294;48.554;10.202;2024-03-02T04:04:53;73023.28;;;3.78;100.00
73941;BME280;62294;48.554;10.202;2024-03-02T04:07:20;73023.53;;;3.74;100.00
73941;BME280;62294;48.554;10.202;2024-03-02T04:09:46;73021.22;;;3.68;100.00
73941;BME280;62294;48.554;10.202;2024-03-02T04:12:13;73025.63;;;3.59;100.00
73941;BME280;62294;48.554;10.202;2024-03-02T04:14:40;72914.19;;;3.66;100.00
73941;BME280;62294;48.554;10.202;2024-03-02T04:17:09;72863.19;;;3.67;100.00
73941;BME280;62294;48.554;10.202;2024-03-02T04:19:35;72879.31;;;3.59;100.00
73941;BME280;62294;48.554;10.202;2024-03-02T04:22:02;72865.34;;;3.52;100.00
73941;BME280;62294;48.554;10.202;2024-03-02T04:24:43;72836.72;;;3.50;100.00
73941;BME280;62294;48.554;10.202;2024-03-02T04:27:10;72712.22;;;3.57;100.00
73941;BME280;62294;48.554;10.202;2024-03-02T04:29:37;72671.78;;;3.56;100.00
73941;BME280;62294;48.554;10.202;2024-03-02T04:32:03;72519.00;;;3.76;100.00
73941;BME280;62294;48.554;10.202;2024-03-02T04:34:30;72571.63;;;3.59;100.00
73941;BME280;62294;48.554;10.202;2024-03-02T04:36:56;72515.78;;;3.65;100.00
73941;BME280;62294;48.554;10.202;2024-03-02T04:39:23;72537.69;;;3.49;100.00
73941;BME280;62294;48.554;10.202;2024-03-02T04:41:51;72580.59;;;3.41;100.00
73941;BME280;62294;48.554;10.202;2024-03-02T04:44:17;72520.13;;;3.47;100.00
73941;BME280;62294;48.554;10.202;2024-03-02T04:46:44;72597.47;;;3.32;100.00
73941;BME280;62294;48.554;10.202;2024-03-02T04:49:10;72533.44;;;3.33;100.00
73941;BME280;62294;48.554;10.202;2024-03-02T04:51:37;72318.84;;;3.60;100.00
73941;BME280;62294;48.554;10.202;2024-03-02T04:54:04;72173.72;;;3.72;100.00
73941;BME280;62294;48.554;10.202;2024-03-02T04:56:30;72050.69;;;3.84;100.00
73941;BME280;62294;48.554;10.202;2024-03-02T04:59:17;72016.53;;;3.78;100.00
73941;BME280;62294;48.554;10.202;2024-03-02T05:01:44;72043.84;;;3.70;100.00
73941;BME280;62294;48.554;10.202;2024-03-02T05:04:11;71993.00;;;3.78;100.00
73941;BME280;62294;48.554;10.202;2024-03-02T05:06:39;71951.84;;;3.78;100.00
73941;BME280;62294;48.554;10.202;2024-03-02T05:09:07;71921.53;;;3.81;100.00
73941;BME280;62294;48.554;10.202;2024-03-02T05:11:34;71856.88;;;3.90;100.00
73941;BME280;62294;48.554;10.202;2024-03-02T05:14:04;71806.47;;;3.92;100.00
73941;BME280;62294;48.554;10.202;2024-03-02T05:16:34;71830.13;;;3.90;100.00
73941;BME280;62294;48.554;10.202;2024-03-02T05:19:01;71857.78;;;3.87;100.00
73941;BME280;62294;48.554;10.202;2024-03-02T05:21:27;71898.03;;;3.81;100.00
73941;BME280;62294;48.554;10.202;2024-03-02T05:23:54;71902.66;;;3.81;100.00
73941;BME280;62294;48.554;10.202;2024-03-02T05:26:21;71912.78;;;3.76;100.00
73941;BME280;62294;48.554;10.202;2024-03-02T05:28:47;71883.59;;;3.82;100.00
73941;BME280;62294;48.554;10.202;2024-03-02T05:31:15;71855.16;;;3.87;100.00
73941;BME280;62294;48.554;10.202;2024-03-02T05:33:43;71790.31;;;3.89;100.00
73941;BME280;62294;48.554;10.202;2024-03-02T05:36:10;71508.00;;;4.06;100.00
73941;BME280;62294;48.554;10.202;2024-03-02T05:38:37;71622.41;;;3.97;100.00
73941;BME280;62294;48.554;10.202;2024-03-02T05:41:04;71527.25;;;4.03;100.00
73941;BME280;62294;48.554;10.202;2024-03-02T05:43:31;71546.34;;;4.01;100.00
73941;BME280;62294;48.554;10.202;2024-03-02T05:45:57;71575.69;;;3.93;100.00
73941;BME280;62294;48.554;10.202;2024-03-02T05:48:24;71624.59;;;3.86;100.00
73941;BME280;62294;48.554;10.202;2024-03-02T05:50:50;71605.06;;;3.94;100.00
73941;BME280;62294;48.554;10.202;2024-03-02T05:53:17;71490.63;;;4.11;100.00
73941;BME280;62294;48.554;10.202;2024-03-02T05:55:43;71444.47;;;4.16;100.00
73941;BME280;62294;48.554;10.202;2024-03-02T05:58:11;71440.47;;;4.17;100.00
73941;BME280;62294;48.554;10.202;2024-03-02T06:00:52;71490.00;;;4.11;100.00
73941;BME280;62294;48.554;10.202;2024-03-02T06:03:19;71744.31;;;3.75;100.00
73941;BME280;62294;48.554;10.202;2024-03-02T06:05:45;71886.56;;;3.59;100.00
73941;BME280;62294;48.554;10.202;2024-03-02T06:08:12;71871.84;;;3.64;100.00
73941;BME280;62294;48.554;10.202;2024-03-02T06:10:38;71939.13;;;3.55;100.00
73941;BME280;62294;48.554;10.202;2024-03-02T06:13:06;71976.13;;;3.49;100.00
73941;BME280;62294;48.554;10.202;2024-03-02T06:15:33;71968.00;;;3.53;100.00
73941;BME280;62294;48.554;10.202;2024-03-02T06:18:02;71941.06;;;3.46;100.00
73941;BME280;62294;48.554;10.202;2024-03-02T06:20:29;71869.53;;;3.60;100.00
73941;BME280;62294;48.554;10.202;2024-03-02T06:23:01;71789.63;;;3.63;100.00
73941;BME280;62294;48.554;10.202;2024-03-02T06:25:28;71790.22;;;3.55;100.00
73941;BME280;62294;48.554;10.202;2024-03-02T06:27:54;71743.38;;;3.53;100.00
73941;BME280;62294;48.554;10.202;2024-03-02T06:30:21;71665.34;;;3.57;100.00
73941;BME280;62294;48.554;10.202;2024-03-02T06:32:50;71673.91;;;3.47;100.00
73941;BME280;62294;48.554;10.202;2024-03-02T06:35:17;71649.34;;;3.44;100.00
73941;BME280;62294;48.554;10.202;2024-03-02T06:37:43;71650.09;;;3.34;100.00
73941;BME280;62294;48.554;10.202;2024-03-02T06:40:10;71519.09;;;3.49;100.00
73941;BME280;62294;48.554;10.202;2024-03-02T06:42:37;71409.25;;;3.51;100.00
73941;BME280;62294;48.554;10.202;2024-03-02T06:45:03;71314.13;;;3.56;100.00
73941;BME280;62294;48.554;10.202;2024-03-02T06:47:30;71324.59;;;3.48;100.00
73941;BME280;62294;48.554;10.202;2024-03-02T06:49:57;71211.50;;;3.58;100.00
73941;BME280;62294;48.554;10.202;2024-03-02T06:52:25;70921.63;;;3.95;100.00
73941;BME280;62294;48.554;10.202;2024-03-02T06:54:51;70773.59;;;4.06;100.00
73941;BME280;62294;48.554;10.202;2024-03-02T06:57:18;70866.19;;;3.79;100.00
73941;BME280;62294;48.554;10.202;2024-03-02T06:59:47;70877.47;;;3.63;100.00
73941;BME280;62294;48.554;10.202;2024-03-02T07:02:16;70678.22;;;3.92;100.00
73941;BME280;62294;48.554;10.202;2024-03-02T07:04:42;70609.91;;;3.96;100.00
73941;BME280;62294;48.554;10.202;2024-03-02T07:07:09;70501.22;;;4.12;100.00
73941;BME280;62294;48.554;10.202;2024-03-02T07:09:36;70355.91;;;4.28;100.00
73941;BME280;62294;48.554;10.202;2024-03-02T07:12:03;70368.97;;;4.22;100.00
73941;BME280;62294;48.554;10.202;2024-03-02T07:14:29;70305.22;;;4.25;100.00
73941;BME280;62294;48.554;10.202;2024-03-02T07:17:19;70223.00;;;4.31;100.00
73941;BME280;62294;48.554;10.202;2024-03-02T07:19:45;70263.00;;;4.29;100.00
73941;BME280;62294;48.554;10.202;2024-03-02T07:22:12;70187.38;;;4.41;100.00
73941;BME280;62294;48.554;10.202;2024-03-02T07:24:43;70191.41;;;4.40;100.00
73941;BME280;62294;48.554;10.202;2024-03-02T07:27:10;70103.69;;;4.54;100.00
73941;BME280;62294;48.554;10.202;2024-03-02T07:29:37;69959.28;;;4.77;100.00
73941;BME280;62294;48.554;10.202;2024-03-02T07:32:04;69812.41;;;4.99;100.00
73941;BME280;62294;48.554;10.202;2024-03-02T07:34:31;69645.81;;;5.26;100.00
73941;BME280;62294;48.554;10.202;2024-03-02T07:36:58;69943.59;;;4.77;100.00
73941;BME280;62294;48.554;10.202;2024-03-02T07:39:25;70064.00;;;4.64;100.00
73941;BME280;62294;48.554;10.202;2024-03-02T07:41:52;69977.34;;;4.86;100.00
73941;BME280;62294;48.554;10.202;2024-03-02T07:44:18;70072.38;;;4.78;100.00
73941;BME280;62294;48.554;10.202;2024-03-02T07:46:46;70068.94;;;4.86;100.00
73941;BME280;62294;48.554;10.202;2024-03-02T07:49:13;70242.44;;;4.65;100.00
73941;BME280;62294;48.554;10.202;2024-03-02T07:51:43;70313.28;;;4.63;100.00
73941;BME280;62294;48.554;10.202;2024-03-02T07:54:09;70611.06;;;4.25;100.00
73941;BME280;62294;48.554;10.202;2024-03-02T07:56:36;70433.38;;;4.65;100.00
73941;BME280;62294;48.554;10.202;2024-03-02T07:59:04;70324.31;;;4.83;100.00
73941;BME280;62294;48.554;10.202;2024-03-02T08:01:32;70477.84;;;4.58;100.00
73941;BME280;62294;48.554;10.202;2024-03-02T08:04:00;70358.13;;;4.85;100.00
73941;BME280;62294;48.554;10.202;2024-03-02T08:06:27;70439.81;;;4.72;100.00
73941;BME280;62294;48.554;10.202;2024-03-02T08:08:55;70592.09;;;4.53;100.00
73941;BME280;62294;48.554;10.202;2024-03-02T08:11:22;70620.06;;;4.55;100.00
73941;BME280;62294;48.554;10.202;2024-03-02T08:13:48;70615.84;;;4.58;100.00
73941;BME280;62294;48.554;10.202;2024-03-02T08:16:15;70635.56;;;4.57;100.00
73941;BME280;62294;48.554;10.202;2024-03-02T08:18:42;70414.09;;;4.94;100.00
73941;BME280;62294;48.554;10.202;2024-03-02T08:21:09;70346.84;;;5.06;100.00
73941;BME280;62294;48.554;10.202;2024-03-02T08:23:35;70040.69;;;5.54;100.00
73941;BME280;62294;48.554;10.202;2024-03-02T08:26:07;69923.31;;;5.68;100.00
73941;BME280;62294;48.554;10.202;2024-03-02T08:28:33;70156.84;;;5.33;100.00
73941;BME280;62294;48.554;10.202;2024-03-02T08:31:00;70438.84;;;4.95;100.00
73941;BME280;62294;48.554;10.202;2024-03-02T08:33:27;70565.66;;;4.90;100.00
73941;BME280;62294;48.554;10.202;2024-03-02T08:35:53;70639.91;;;4.86;100.00
73941;BME280;62294;48.554;10.202;2024-03-02T08:38:20;70750.97;;;4.74;100.00
73941;BME280;62294;48.554;10.202;2024-03-02T08:40:46;70662.72;;;5.01;100.00
73941;BME280;62294;48.554;10.202;2024-03-02T08:43:13;70759.69;;;4.86;100.00
73941;BME280;62294;48.554;10.202;2024-03-02T08:45:40;70615.84;;;5.19;100.00
73941;BME280;62294;48.554;10.202;2024-03-02T08:48:07;70568.53;;;5.27;100.00
73941;BME280;62294;48.554;10.202;2024-03-02T08:50:37;70714.69;;;5.05;100.00
73941;BME280;62294;48.554;10.202;2024-03-02T08:53:04;70641.84;;;5.27;100.00
73941;BME280;62294;48.554;10.202;2024-03-02T08:55:31;70601.00;;;5.43;100.00
73941;BME280;62294;48.554;10.202;2024-03-02T08:57:57;70695.88;;;5.31;100.00
73941;BME280;62294;48.554;10.202;2024-03-02T09:00:24;70941.22;;;5.04;100.00
73941;BME280;62294;48.554;10.202;2024-03-02T09:02:51;71078.66;;;4.96;100.00
73941;BME280;62294;48.554;10.202;2024-03-02T09:05:18;71260.38;;;4.76;100.00
73941;BME280;62294;48.554;10.202;2024-03-02T09:07:44;71357.44;;;4.65;100.00
73941;BME280;62294;48.554;10.202;2024-03-02T09:10:11;71351.34;;;4.75;100.00
73941;BME280;62294;48.554;10.202;2024-03-02T09:12:37;71223.81;;;4.97;100.00
73941;BME280;62294;48.554;10.202;2024-03-02T09:15:04;71141.44;;;5.12;100.00
73941;BME280;62294;48.554;10.202;2024-03-02T09:17:32;70952.72;;;5.35;100.00
73941;BME280;62294;48.554;10.202;2024-03-02T09:19:59;70861.13;;;5.48;100.00
73941;BME280;62294;48.554;10.202;2024-03-02T09:22:26;70985.31;;;5.30;100.00
73941;BME280;62294;48.554;10.202;2024-03-02T09:24:52;71171.38;;;5.06;100.00
73941;BME280;62294;48.554;10.202;2024-03-02T09:27:19;71177.91;;;5.14;100.00
73941;BME280;62294;48.554;10.202;2024-03-02T09:29:45;71098.34;;;5.32;100.00
73941;BME280;62294;48.554;10.202;2024-03-02T09:32:12;71211.69;;;5.24;100.00
73941;BME280;62294;48.554;10.202;2024-03-02T09:34:40;71228.59;;;5.25;100.00
73941;BME280;62294;48.554;10.202;2024-03-02T09:37:07;71175.22;;;5.44;100.00
73941;BME280;62294;48.554;10.202;2024-03-02T09:39:34;71262.97;;;5.36;100.00
73941;BME280;62294;48.554;10.202;2024-03-02T09:42:01;71204.72;;;5.51;100.00
73941;BME280;62294;48.554;10.202;2024-03-02T09:44:29;71241.06;;;5.55;100.00
73941;BME280;62294;48.554;10.202;2024-03-02T09:46:56;71201.13;;;5.69;100.00
73941;BME280;62294;48.554;10.202;2024-03-02T09:49:22;71177.66;;;5.83;100.00
73941;BME280;62294;48.554;10.202;2024-03-02T09:51:49;71085.69;;;6.00;100.00
73941;BME280;62294;48.554;10.202;2024-03-02T09:54:16;71291.09;;;5.74;100.00
73941;BME280;62294;48.554;10.202;2024-03-02T09:56:49;71382.47;;;5.63;100.00
73941;BME280;62294;48.554;10.202;2024-03-02T09:59:17;71068.75;;;6.27;100.00
73941;BME280;62294;48.554;10.202;2024-03-02T10:02:02;70754.06;;;6.79;100.00
73941;BME280;62294;48.554;10.202;2024-03-02T10:04:30;70900.44;;;6.66;100.00
73941;BME280;62294;48.554;10.202;2024-03-02T10:07:15;71043.06;;;6.49;100.00
73941;BME280;62294;48.554;10.202;2024-03-02T10:09:43;71042.34;;;6.64;100.00
73941;BME280;62294;48.554;10.202;2024-03-02T10:12:13;71508.25;;;6.02;100.00
73941;BME280;62294;48.554;10.202;2024-03-02T10:14:41;71271.63;;;6.60;100.00
73941;BME280;62294;48.554;10.202;2024-03-02T10:17:09;71423.81;;;6.38;100.00
73941;BME280;62294;48.554;10.202;2024-03-02T10:19:37;71475.75;;;6.44;100.00
73941;BME280;62294;48.554;10.202;2024-03-02T10:22:05;71415.72;;;6.71;100.00
73941;BME280;62294;48.554;10.202;2024-03-02T10:24:40;71360.97;;;6.88;100.00
73941;BME280;62294;48.554;10.202;2024-03-02T10:27:15;71105.59;;;7.51;100.00
73941;BME280;62294;48.554;10.202;2024-03-02T10:29:46;70624.13;;;8.31;100.00
73941;BME280;62294;48.554;10.202;2024-03-02T10:32:12;70530.19;;;8.61;100.00
73941;BME280;62294;48.554;10.202;2024-03-02T10:34:41;71080.25;;;7.95;100.00
73941;BME280;62294;48.554;10.202;2024-03-02T10:37:08;70898.97;;;8.45;100.00
73941;BME280;62294;48.554;10.202;2024-03-02T10:39:35;71199.53;;;8.20;100.00
73941;BME280;62294;48.554;10.202;2024-03-02T10:42:07;71336.56;;;8.24;100.00
73941;BME280;62294;48.554;10.202;2024-03-02T10:44:34;71409.97;;;8.35;100.00
73941;BME280;62294;48.554;10.202;2024-03-02T10:47:03;71571.28;;;8.33;100.00
73941;BME280;62294;48.554;10.202;2024-03-02T10:49:31;71345.28;;;8.99;100.00
73941;BME280;62294;48.554;10.202;2024-03-02T10:51:59;71163.09;;;9.55;100.00
73941;BME280;62294;48.554;10.202;2024-03-02T10:54:26;71204.50;;;9.76;100.00
73941;BME280;62294;48.554;10.202;2024-03-02T10:56:53;71491.56;;;9.67;100.00
73941;BME280;62294;48.554;10.202;2024-03-02T10:59:28;71590.53;;;9.94;100.00
73941;BME280;62294;48.554;10.202;2024-03-02T11:01:59;71763.84;;;10.18;100.00
73941;BME280;62294;48.554;10.202;2024-03-02T11:04:31;71461.44;;;11.12;100.00
73941;BME280;62294;48.554;10.202;2024-03-02T11:07:09;70981.56;;;12.39;100.00
73941;BME280;62294;48.554;10.202;2024-03-02T11:09:41;71501.38;;;12.26;100.00
73941;BME280;62294;48.554;10.202;2024-03-02T11:12:23;71930.91;;;12.35;100.00
73941;BME280;62294;48.554;10.202;2024-03-02T11:14:50;72552.28;;;12.04;100.00
73941;BME280;62294;48.554;10.202;2024-03-02T11:17:18;72923.59;;;12.22;100.00
73941;BME280;62294;48.554;10.202;2024-03-02T11:19:46;73610.03;;;11.71;100.00
73941;BME280;62294;48.554;10.202;2024-03-02T11:22:13;73871.59;;;11.89;100.00
73941;BME280;62294;48.554;10.202;2024-03-02T11:24:50;73983.31;;;12.34;100.00
73941;BME280;62294;48.554;10.202;2024-03-02T11:33:02;74770.94;;;13.52;100.00
73941;BME280;62294;48.554;10.202;2024-03-02T11:35:38;74979.06;;;14.35;100.00
73941;BME280;62294;48.554;10.202;2024-03-02T11:38:07;75741.56;;;14.23;100.00
73941;BME280;62294;48.554;10.202;2024-03-02T11:40:35;76644.16;;;13.67;100.00
73941;BME280;62294;48.554;10.202;2024-03-02T11:43:02;77169.16;;;13.66;100.00
73941;BME280;62294;48.554;10.202;2024-03-02T11:45:29;77272.69;;;14.51;100.00
73941;BME280;62294;48.554;10.202;2024-03-02T11:47:57;77989.00;;;14.19;100.00
73941;BME280;62294;48.554;10.202;2024-03-02T11:50:34;78920.22;;;13.31;100.00
73941;BME280;62294;48.554;10.202;2024-03-02T11:53:02;79483.03;;;12.99;100.00
73941;BME280;62294;48.554;10.202;2024-03-02T11:55:30;79867.97;;;12.87;100.00
73941;BME280;62294;48.554;10.202;2024-03-02T11:57:57;79965.44;;;13.25;100.00
73941;BME280;62294;48.554;10.202;2024-03-02T12:00:24;80361.41;;;13.04;100.00
73941;BME280;62294;48.554;10.202;2024-03-02T12:03:04;80955.69;;;12.23;100.00
73941;BME280;62294;48.554;10.202;2024-03-02T12:05:31;81318.44;;;11.57;100.00
73941;BME280;62294;48.554;10.202;2024-03-02T12:07:59;81479.72;;;11.25;100.00
73941;BME280;62294;48.554;10.202;2024-03-02T12:10:27;81345.75;;;11.71;100.00
73941;BME280;62294;48.554;10.202;2024-03-02T12:13:00;81280.72;;;12.06;100.00
73941;BME280;62294;48.554;10.202;2024-03-02T12:15:31;81457.97;;;11.96;100.00
73941;BME280;62294;48.554;10.202;2024-03-02T12:18:00;81573.34;;;12.07;100.00
73941;BME280;62294;48.554;10.202;2024-03-02T12:20:30;82054.00;;;11.21;100.00
73941;BME280;62294;48.554;10.202;2024-03-02T12:22:59;82153.22;;;11.08;100.00
73941;BME280;62294;48.554;10.202;2024-03-02T12:25:26;82068.94;;;11.35;100.00
73941;BME280;62294;48.554;10.202;2024-03-02T12:27:55;82083.84;;;11.50;100.00
73941;BME280;62294;48.554;10.202;2024-03-02T12:30:22;82137.19;;;11.54;100.00
73941;BME280;62294;48.554;10.202;2024-03-02T12:32:50;82094.69;;;11.83;100.00
73941;BME280;62294;48.554;10.202;2024-03-02T12:35:18;82273.47;;;11.68;100.00
73941;BME280;62294;48.554;10.202;2024-03-02T12:37:45;82424.34;;;11.55;100.00
73941;BME280;62294;48.554;10.202;2024-03-02T12:40:13;82497.09;;;11.52;100.00
73941;BME280;62294;48.554;10.202;2024-03-02T12:42:40;82556.28;;;11.54;100.00
73941;BME280;62294;48.554;10.202;2024-03-02T12:45:09;82629.00;;;11.51;100.00
73941;BME280;62294;48.554;10.202;2024-03-02T12:47:36;82735.00;;;11.24;100.00
73941;BME280;62294;48.554;10.202;2024-03-02T12:50:04;82614.16;;;11.65;100.00
73941;BME280;62294;48.554;10.202;2024-03-02T12:52:31;82616.13;;;11.82;100.00
73941;BME280;62294;48.554;10.202;2024-03-02T12:55:01;82727.41;;;11.63;100.00
73941;BME280;62294;48.554;10.202;2024-03-02T12:57:34;82652.38;;;11.96;100.00
73941;BME280;62294;48.554;10.202;2024-03-02T13:00:05;82667.00;;;12.15;100.00
73941;BME280;62294;48.554;10.202;2024-03-02T13:02:36;82832.34;;;11.98;100.00
73941;BME280;62294;48.554;10.202;2024-03-02T13:05:03;82837.91;;;12.27;100.00